sensor_id;sensor_type;location;lat;lon;timestamp;pressure;altitude;pressure_sealevel;temperature
33267;BMP180;19638;49.080;11.896;2023-04-24T00:03:01;95341.00;;;12.00
33267;BMP180;19638;49.080;11.896;2023-04-24T00:07:07;95341.00;;;12.00
33267;BMP180;19638;49.080;11.896;2023-04-24T00:11:10;95337.00;;;11.90
33267;BMP180;19638;49.080;11.896;2023-04-24T00:15:15;95328.00;;;11.80
33267;BMP180;19638;49.080;11.896;2023-04-24T00:19:18;95329.00;;;11.90
33267;BMP180;19638;49.080;11.896;2023-04-24T00:23:24;95330.00;;;11.80
33267;BMP180;19638;49.080;11.896;2023-04-24T00:27:30;95328.00;;;11.80
33267;BMP180;19638;49.080;11.896;2023-04-24T00:31:34;95334.00;;;11.80
33267;BMP180;19638;49.080;11.896;2023-04-24T00:35:39;95324.00;;;11.70
33267;BMP180;19638;49.080;11.896;2023-04-24T00:39:45;95317.00;;;11.70
33267;BMP180;19638;49.080;11.896;2023-04-24T00:43:53;95327.00;;;11.70
33267;BMP180;19638;49.080;11.896;2023-04-24T00:47:57;95322.00;;;11.70
33267;BMP180;19638;49.080;11.896;2023-04-24T00:52:03;95332.00;;;11.70
33267;BMP180;19638;49.080;11.896;2023-04-24T00:56:14;95322.00;;;11.70
33267;BMP180;19638;49.080;11.896;2023-04-24T01:00:18;95320.00;;;11.80
33267;BMP180;19638;49.080;11.896;2023-04-24T01:04:24;95323.00;;;11.80
33267;BMP180;19638;49.080;11.896;2023-04-24T01:08:32;95327.00;;;11.80
33267;BMP180;19638;49.080;11.896;2023-04-24T01:12:37;95324.00;;;11.90
33267;BMP180;19638;49.080;11.896;2023-04-24T01:16:44;95326.00;;;11.80
33267;BMP180;19638;49.080;11.896;2023-04-24T01:20:50;95322.00;;;11.80
33267;BMP180;19638;49.080;11.896;2023-04-24T01:24:57;95327.00;;;11.70
33267;BMP180;19638;49.080;11.896;2023-04-24T01:29:03;95331.00;;;11.70
33267;BMP180;19638;49.080;11.896;2023-04-24T01:33:08;95333.00;;;11.60
33267;BMP180;19638;49.080;11.896;2023-04-24T01:37:14;95328.00;;;11.60
33267;BMP180;19638;49.080;11.896;2023-04-24T01:41:21;95317.00;;;11.70
33267;BMP180;19638;49.080;11.896;2023-04-24T01:45:26;95309.00;;;11.70
33267;BMP180;19638;49.080;11.896;2023-04-24T01:49:37;95315.00;;;11.70
33267;BMP180;19638;49.080;11.896;2023-04-24T01:53:41;95319.00;;;11.70
33267;BMP180;19638;49.080;11.896;2023-04-24T01:57:48;95319.00;;;11.70
33267;BMP180;19638;49.080;11.896;2023-04-24T02:01:52;95317.00;;;11.70
33267;BMP180;19638;49.080;11.896;2023-04-24T02:05:55;95305.00;;;11.70
33267;BMP180;19638;49.080;11.896;2023-04-24T02:09:58;95312.00;;;11.70
33267;BMP180;19638;49.080;11.896;2023-04-24T02:14:08;95301.00;;;11.70
33267;BMP180;19638;49.080;11.896;2023-04-24T02:18:14;95298.00;;;11.80
33267;BMP180;19638;49.080;11.896;2023-04-24T02:22:17;95297.00;;;11.70
33267;BMP180;19638;49.080;11.896;2023-04-24T02:26:20;95290.00;;;11.70
33267;BMP180;19638;49.080;11.896;2023-04-24T02:30:27;95297.00;;;11.70
33267;BMP180;19638;49.080;11.896;2023-04-24T02:34:32;95288.00;;;11.50
33267;BMP180;19638;49.080;11.896;2023-04-24T02:38:35;95288.00;;;11.40
33267;BMP180;19638;49.080;11.896;2023-04-24T02:42:38;95284.00;;;11.40
33267;BMP180;19638;49.080;11.896;2023-04-24T02:46:43;95267.00;;;11.30
33267;BMP180;19638;49.080;11.896;2023-04-24T02:50:46;95265.00;;;11.20
33267;BMP180;19638;49.080;11.896;2023-04-24T02:54:49;95274.00;;;11.10
33267;BMP180;19638;49.080;11.896;2023-04-24T02:58:52;95271.00;;;11.10
33267;BMP180;19638;49.080;11.896;2023-04-24T03:02:57;95271.00;;;11.00
33267;BMP180;19638;49.080;11.896;2023-04-24T03:07:01;95267.00;;;11.00
33267;BMP180;19638;49.080;11.896;2023-04-24T03:11:05;95270.00;;;10.90
33267;BMP180;19638;49.080;11.896;2023-04-24T03:15:09;95267.00;;;10.90
33267;BMP180;19638;49.080;11.896;2023-04-24T03:19:14;95272.00;;;10.90
33267;BMP180;19638;49.080;11.896;2023-04-24T03:23:17;95266.00;;;10.80
33267;BMP180;19638;49.080;11.896;2023-04-24T03:27:20;95266.00;;;10.80
33267;BMP180;19638;49.080;11.896;2023-04-24T03:31:23;95271.00;;;10.80
33267;BMP180;19638;49.080;11.896;2023-04-24T03:35:29;95266.00;;;10.80
33267;BMP180;19638;49.080;11.896;2023-04-24T03:39:32;95274.00;;;10.80
33267;BMP180;19638;49.080;11.896;2023-04-24T03:43:38;95278.00;;;10.90
33267;BMP180;19638;49.080;11.896;2023-04-24T03:47:42;95289.00;;;10.90
33267;BMP180;19638;49.080;11.896;2023-04-24T03:51:46;95289.00;;;11.00
33267;BMP180;19638;49.080;11.896;2023-04-24T03:55:50;95297.00;;;11.10
33267;BMP180;19638;49.080;11.896;2023-04-24T03:59:55;95293.00;;;11.10
33267;BMP180;19638;49.080;11.896;2023-04-24T04:03:58;95290.00;;;11.10
33267;BMP180;19638;49.080;11.896;2023-04-24T04:08:06;95289.00;;;11.20
33267;BMP180;19638;49.080;11.896;2023-04-24T04:12:09;95287.00;;;11.20
33267;BMP180;19638;49.080;11.896;2023-04-24T04:16:13;95288.00;;;11.20
33267;BMP180;19638;49.080;11.896;2023-04-24T04:20:18;95284.00;;;11.20
33267;BMP180;19638;49.080;11.896;2023-04-24T04:24:24;95275.00;;;11.20
33267;BMP180;19638;49.080;11.896;2023-04-24T04:28:28;95275.00;;;11.30
33267;BMP180;19638;49.080;11.896;2023-04-24T04:32:34;95278.00;;;11.30
33267;BMP180;19638;49.080;11.896;2023-04-24T04:36:40;95288.00;;;11.30
33267;BMP180;19638;49.080;11.896;2023-04-24T04:40:47;95277.00;;;11.30
33267;BMP180;19638;49.080;11.896;2023-04-24T04:44:50;95282.00;;;11.30
33267;BMP180;19638;49.080;11.896;2023-04-24T04:48:53;95277.00;;;11.30
33267;BMP180;19638;49.080;11.896;2023-04-24T04:53:00;95288.00;;;11.40
33267;BMP180;19638;49.080;11.896;2023-04-24T04:57:07;95292.00;;;11.40
33267;BMP180;19638;49.080;11.896;2023-04-24T05:01:13;95289.00;;;11.40
33267;BMP180;19638;49.080;11.896;2023-04-24T05:05:17;95299.00;;;11.40
33267;BMP180;19638;49.080;11.896;2023-04-24T05:09:20;95297.00;;;11.50
33267;BMP180;19638;49.080;11.896;2023-04-24T05:13:25;95300.00;;;11.50
33267;BMP180;19638;49.080;11.896;2023-04-24T05:17:40;95302.00;;;11.60
33267;BMP180;19638;49.080;11.896;2023-04-24T05:21:46;95300.00;;;11.60
33267;BMP180;19638;49.080;11.896;2023-04-24T05:26:00;95314.00;;;11.60
33267;BMP180;19638;49.080;11.896;2023-04-24T05:30:06;95316.00;;;11.70
33267;BMP180;19638;49.080;11.896;2023-04-24T05:34:11;95313.00;;;11.70
33267;BMP180;19638;49.080;11.896;2023-04-24T05:38:15;95319.00;;;11.80
33267;BMP180;19638;49.080;11.896;2023-04-24T05:42:23;95326.00;;;11.90
33267;BMP180;19638;49.080;11.896;2023-04-24T05:46:30;95319.00;;;11.90
33267;BMP180;19638;49.080;11.896;2023-04-24T05:50:34;95321.00;;;12.00
33267;BMP180;19638;49.080;11.896;2023-04-24T05:54:39;95324.00;;;12.00
33267;BMP180;19638;49.080;11.896;2023-04-24T05:58:44;95322.00;;;12.20
33267;BMP180;19638;49.080;11.896;2023-04-24T06:02:51;95322.00;;;12.30
33267;BMP180;19638;49.080;11.896;2023-04-24T06:06:56;95320.00;;;12.30
33267;BMP180;19638;49.080;11.896;2023-04-24T06:11:02;95331.00;;;12.50
33267;BMP180;19638;49.080;11.896;2023-04-24T06:15:06;95332.00;;;12.50
33267;BMP180;19638;49.080;11.896;2023-04-24T06:19:16;95333.00;;;12.50
33267;BMP180;19638;49.080;11.896;2023-04-24T06:23:19;95340.00;;;12.50
33267;BMP180;19638;49.080;11.896;2023-04-24T06:27:26;95338.00;;;12.50
33267;BMP180;19638;49.080;11.896;2023-04-24T06:31:29;95330.00;;;12.50
33267;BMP180;19638;49.080;11.896;2023-04-24T06:35:39;95339.00;;;12.60
33267;BMP180;19638;49.080;11.896;2023-04-24T06:39:45;95341.00;;;12.70
33267;BMP180;19638;49.080;11.896;2023-04-24T06:43:53;95338.00;;;12.90
33267;BMP180;19638;49.080;11.896;2023-04-24T06:47:56;95334.00;;;13.10
33267;BMP180;19638;49.080;11.896;2023-04-24T06:52:03;95338.00;;;13.30
33267;BMP180;19638;49.080;11.896;2023-04-24T06:56:11;95327.00;;;13.50
33267;BMP180;19638;49.080;11.896;2023-04-24T07:00:17;95326.00;;;13.70
33267;BMP180;19638;49.080;11.896;2023-04-24T07:04:22;95337.00;;;13.90
33267;BMP180;19638;49.080;11.896;2023-04-24T07:08:29;95334.00;;;14.10
33267;BMP180;19638;49.080;11.896;2023-04-24T07:12:34;95336.00;;;14.10
33267;BMP180;19638;49.080;11.896;2023-04-24T07:16:37;95325.00;;;14.30
33267;BMP180;19638;49.080;11.896;2023-04-24T07:20:40;95335.00;;;14.60
33267;BMP180;19638;49.080;11.896;2023-04-24T07:24:53;95343.00;;;14.90
33267;BMP180;19638;49.080;11.896;2023-04-24T07:28:59;95350.00;;;14.90
33267;BMP180;19638;49.080;11.896;2023-04-24T07:33:02;95339.00;;;14.70
33267;BMP180;19638;49.080;11.896;2023-04-24T07:37:05;95350.00;;;14.70
33267;BMP180;19638;49.080;11.896;2023-04-24T07:41:10;95339.00;;;14.80
33267;BMP180;19638;49.080;11.896;2023-04-24T07:45:14;95348.00;;;15.00
33267;BMP180;19638;49.080;11.896;2023-04-24T07:49:20;95360.00;;;15.20
33267;BMP180;19638;49.080;11.896;2023-04-24T07:53:26;95354.00;;;15.50
33267;BMP180;19638;49.080;11.896;2023-04-24T07:57:31;95345.00;;;15.40
33267;BMP180;19638;49.080;11.896;2023-04-24T08:01:34;95349.00;;;15.10
33267;BMP180;19638;49.080;11.896;2023-04-24T08:05:37;95353.00;;;15.10
33267;BMP180;19638;49.080;11.896;2023-04-24T08:09:41;95357.00;;;15.10
33267;BMP180;19638;49.080;11.896;2023-04-24T08:13:51;95379.00;;;14.90
33267;BMP180;19638;49.080;11.896;2023-04-24T08:17:57;95374.00;;;14.30
33267;BMP180;19638;49.080;11.896;2023-04-24T08:22:01;95378.00;;;13.90
33267;BMP180;19638;49.080;11.896;2023-04-24T08:26:05;95388.00;;;13.80
33267;BMP180;19638;49.080;11.896;2023-04-24T08:30:11;95391.00;;;14.10
33267;BMP180;19638;49.080;11.896;2023-04-24T08:34:17;95394.00;;;14.40
33267;BMP180;19638;49.080;11.896;2023-04-24T08:38:23;95396.00;;;14.80
33267;BMP180;19638;49.080;11.896;2023-04-24T08:42:28;95401.00;;;15.00
33267;BMP180;19638;49.080;11.896;2023-04-24T08:46:35;95405.00;;;14.90
33267;BMP180;19638;49.080;11.896;2023-04-24T08:50:40;95402.00;;;14.60
33267;BMP180;19638;49.080;11.896;2023-04-24T08:54:45;95413.00;;;14.70
33267;BMP180;19638;49.080;11.896;2023-04-24T08:58:51;95413.00;;;14.70
33267;BMP180;19638;49.080;11.896;2023-04-24T09:02:56;95415.00;;;14.90
33267;BMP180;19638;49.080;11.896;2023-04-24T09:07:02;95410.00;;;15.10
33267;BMP180;19638;49.080;11.896;2023-04-24T09:11:07;95416.00;;;15.40
33267;BMP180;19638;49.080;11.896;2023-04-24T09:15:11;95420.00;;;15.20
33267;BMP180;19638;49.080;11.896;2023-04-24T09:19:15;95406.00;;;15.10
33267;BMP180;19638;49.080;11.896;2023-04-24T09:23:20;95406.00;;;15.00
33267;BMP180;19638;49.080;11.896;2023-04-24T09:27:23;95402.00;;;15.20
33267;BMP180;19638;49.080;11.896;2023-04-24T09:31:31;95410.00;;;15.70
33267;BMP180;19638;49.080;11.896;2023-04-24T09:35:35;95411.00;;;16.40
33267;BMP180;19638;49.080;11.896;2023-04-24T09:39:39;95413.00;;;16.30
33267;BMP180;19638;49.080;11.896;2023-04-24T09:43:43;95426.00;;;16.20
33267;BMP180;19638;49.080;11.896;2023-04-24T09:47:54;95423.00;;;15.90
33267;BMP180;19638;49.080;11.896;2023-04-24T09:52:04;95439.00;;;15.70
33267;BMP180;19638;49.080;11.896;2023-04-24T09:56:09;95438.00;;;15.60
33267;BMP180;19638;49.080;11.896;2023-04-24T10:00:20;95444.00;;;15.40
33267;BMP180;19638;49.080;11.896;2023-04-24T10:04:27;95442.00;;;15.40
33267;BMP180;19638;49.080;11.896;2023-04-24T10:08:35;95442.00;;;15.90
33267;BMP180;19638;49.080;11.896;2023-04-24T10:12:38;95453.00;;;16.10
33267;BMP180;19638;49.080;11.896;2023-04-24T10:16:42;95463.00;;;16.20
33267;BMP180;19638;49.080;11.896;2023-04-24T10:20:45;95458.00;;;16.10
33267;BMP180;19638;49.080;11.896;2023-04-24T10:24:53;95441.00;;;15.90
33267;BMP180;19638;49.080;11.896;2023-04-24T10:28:57;95463.00;;;16.10
33267;BMP180;19638;49.080;11.896;2023-04-24T10:33:01;95461.00;;;16.40
33267;BMP180;19638;49.080;11.896;2023-04-24T10:37:08;95462.00;;;16.50
33267;BMP180;19638;49.080;11.896;2023-04-24T10:41:17;95450.00;;;16.60
33267;BMP180;19638;49.080;11.896;2023-04-24T10:45:25;95459.00;;;17.20
33267;BMP180;19638;49.080;11.896;2023-04-24T10:49:32;95460.00;;;17.40
33267;BMP180;19638;49.080;11.896;2023-04-24T10:53:35;95454.00;;;17.60
33267;BMP180;19638;49.080;11.896;2023-04-24T10:58:05;95445.00;;;18.00
33267;BMP180;19638;49.080;11.896;2023-04-24T11:02:09;95459.00;;;18.10
33267;BMP180;19638;49.080;11.896;2023-04-24T11:06:15;95466.00;;;18.20
33267;BMP180;19638;49.080;11.896;2023-04-24T11:10:25;95469.00;;;17.70
33267;BMP180;19638;49.080;11.896;2023-04-24T11:14:30;95471.00;;;17.00
33267;BMP180;19638;49.080;11.896;2023-04-24T11:18:39;95486.00;;;16.00
33267;BMP180;19638;49.080;11.896;2023-04-24T11:22:46;95487.00;;;14.60
33267;BMP180;19638;49.080;11.896;2023-04-24T11:26:51;95481.00;;;14.00
33267;BMP180;19638;49.080;11.896;2023-04-24T11:30:56;95491.00;;;14.00
33267;BMP180;19638;49.080;11.896;2023-04-24T11:35:03;95499.00;;;14.30
33267;BMP180;19638;49.080;11.896;2023-04-24T11:39:06;95490.00;;;14.70
33267;BMP180;19638;49.080;11.896;2023-04-24T11:43:12;95485.00;;;15.20
33267;BMP180;19638;49.080;11.896;2023-04-24T11:47:18;95482.00;;;15.90
33267;BMP180;19638;49.080;11.896;2023-04-24T11:51:23;95469.00;;;16.90
33267;BMP180;19638;49.080;11.896;2023-04-24T11:55:37;95479.00;;;18.10
33267;BMP180;19638;49.080;11.896;2023-04-24T11:59:40;95486.00;;;18.10
33267;BMP180;19638;49.080;11.896;2023-04-24T12:03:48;95472.00;;;17.90
33267;BMP180;19638;49.080;11.896;2023-04-24T12:07:53;95473.00;;;17.40
33267;BMP180;19638;49.080;11.896;2023-04-24T12:11:59;95465.00;;;17.50
33267;BMP180;19638;49.080;11.896;2023-04-24T12:16:05;95466.00;;;17.60
33267;BMP180;19638;49.080;11.896;2023-04-24T12:20:12;95467.00;;;17.60
33267;BMP180;19638;49.080;11.896;2023-04-24T12:24:18;95471.00;;;17.50
33267;BMP180;19638;49.080;11.896;2023-04-24T12:28:23;95461.00;;;17.60
33267;BMP180;19638;49.080;11.896;2023-04-24T12:32:28;95467.00;;;17.70
33267;BMP180;19638;49.080;11.896;2023-04-24T12:36:37;95465.00;;;17.90
33267;BMP180;19638;49.080;11.896;2023-04-24T12:40:46;95482.00;;;17.80
33267;BMP180;19638;49.080;11.896;2023-04-24T12:44:56;95482.00;;;17.20
33267;BMP180;19638;49.080;11.896;2023-04-24T12:49:01;95487.00;;;17.10
33267;BMP180;19638;49.080;11.896;2023-04-24T12:53:08;95502.00;;;16.90
33267;BMP180;19638;49.080;11.896;2023-04-24T12:57:15;95509.00;;;16.60
33267;BMP180;19638;49.080;11.896;2023-04-24T13:01:21;95537.00;;;16.10
33267;BMP180;19638;49.080;11.896;2023-04-24T13:05:26;95525.00;;;15.60
33267;BMP180;19638;49.080;11.896;2023-04-24T13:09:31;95539.00;;;15.70
33267;BMP180;19638;49.080;11.896;2023-04-24T13:13:36;95537.00;;;16.00
33267;BMP180;19638;49.080;11.896;2023-04-24T13:17:50;95528.00;;;16.00
33267;BMP180;19638;49.080;11.896;2023-04-24T13:21:54;95528.00;;;16.00
33267;BMP180;19638;49.080;11.896;2023-04-24T13:26:01;95532.00;;;15.90
33267;BMP180;19638;49.080;11.896;2023-04-24T13:30:07;95535.00;;;16.30
33267;BMP180;19638;49.080;11.896;2023-04-24T13:34:10;95534.00;;;16.60
33267;BMP180;19638;49.080;11.896;2023-04-24T13:38:15;95526.00;;;16.70
33267;BMP180;19638;49.080;11.896;2023-04-24T13:42:22;95527.00;;;16.70
33267;BMP180;19638;49.080;11.896;2023-04-24T13:46:32;95526.00;;;16.50
33267;BMP180;19638;49.080;11.896;2023-04-24T13:50:36;95537.00;;;16.20
33267;BMP180;19638;49.080;11.896;2023-04-24T13:54:39;95542.00;;;15.70
33267;BMP180;19638;49.080;11.896;2023-04-24T13:58:44;95550.00;;;14.90
33267;BMP180;19638;49.080;11.896;2023-04-24T14:02:48;95550.00;;;13.70
33267;BMP180;19638;49.080;11.896;2023-04-24T14:06:53;95553.00;;;12.90
33267;BMP180;19638;49.080;11.896;2023-04-24T14:10:58;95547.00;;;12.60
33267;BMP180;19638;49.080;11.896;2023-04-24T14:15:11;95553.00;;;12.30
33267;BMP180;19638;49.080;11.896;2023-04-24T14:19:16;95554.00;;;12.20
33267;BMP180;19638;49.080;11.896;2023-04-24T14:23:20;95551.00;;;12.20
33267;BMP180;19638;49.080;11.896;2023-04-24T14:27:23;95560.00;;;12.30
33267;BMP180;19638;49.080;11.896;2023-04-24T14:31:29;95553.00;;;12.40
33267;BMP180;19638;49.080;11.896;2023-04-24T14:35:33;95558.00;;;12.50
33267;BMP180;19638;49.080;11.896;2023-04-24T14:39:36;95548.00;;;12.80
33267;BMP180;19638;49.080;11.896;2023-04-24T14:43:39;95555.00;;;13.30
33267;BMP180;19638;49.080;11.896;2023-04-24T14:47:45;95555.00;;;13.80
33267;BMP180;19638;49.080;11.896;2023-04-24T14:51:49;95555.00;;;14.20
33267;BMP180;19638;49.080;11.896;2023-04-24T14:55:55;95546.00;;;14.40
33267;BMP180;19638;49.080;11.896;2023-04-24T15:00:01;95558.00;;;14.50
33267;BMP180;19638;49.080;11.896;2023-04-24T15:04:09;95562.00;;;14.30
33267;BMP180;19638;49.080;11.896;2023-04-24T15:08:13;95549.00;;;14.30
33267;BMP180;19638;49.080;11.896;2023-04-24T15:12:17;95552.00;;;14.20
33267;BMP180;19638;49.080;11.896;2023-04-24T15:16:23;95556.00;;;14.10
33267;BMP180;19638;49.080;11.896;2023-04-24T15:20:28;95563.00;;;14.20
33267;BMP180;19638;49.080;11.896;2023-04-24T15:24:31;95560.00;;;14.50
33267;BMP180;19638;49.080;11.896;2023-04-24T15:28:34;95568.00;;;15.30
33267;BMP180;19638;49.080;11.896;2023-04-24T15:32:37;95561.00;;;16.00
33267;BMP180;19638;49.080;11.896;2023-04-24T15:36:42;95571.00;;;16.30
33267;BMP180;19638;49.080;11.896;2023-04-24T15:40:45;95572.00;;;16.20
33267;BMP180;19638;49.080;11.896;2023-04-24T15:44:49;95573.00;;;16.00
33267;BMP180;19638;49.080;11.896;2023-04-24T15:48:53;95578.00;;;15.60
33267;BMP180;19638;49.080;11.896;2023-04-24T15:52:58;95590.00;;;15.40
33267;BMP180;19638;49.080;11.896;2023-04-24T15:57:05;95584.00;;;15.30
33267;BMP180;19638;49.080;11.896;2023-04-24T16:01:08;95573.00;;;15.30
33267;BMP180;19638;49.080;11.896;2023-04-24T16:05:11;95583.00;;;15.20
33267;BMP180;19638;49.080;11.896;2023-04-24T16:09:16;95579.00;;;15.10
33267;BMP180;19638;49.080;11.896;2023-04-24T16:13:19;95605.00;;;14.70
33267;BMP180;19638;49.080;11.896;2023-04-24T16:17:27;95610.00;;;14.20
33267;BMP180;19638;49.080;11.896;2023-04-24T16:21:30;95620.00;;;13.50
33267;BMP180;19638;49.080;11.896;2023-04-24T16:25:35;95608.00;;;13.40
33267;BMP180;19638;49.080;11.896;2023-04-24T16:29:40;95619.00;;;13.70
33267;BMP180;19638;49.080;11.896;2023-04-24T16:33:46;95601.00;;;14.70
33267;BMP180;19638;49.080;11.896;2023-04-24T16:37:54;95613.00;;;14.90
33267;BMP180;19638;49.080;11.896;2023-04-24T16:41:58;95613.00;;;14.80
33267;BMP180;19638;49.080;11.896;2023-04-24T16:46:02;95605.00;;;14.70
33267;BMP180;19638;49.080;11.896;2023-04-24T16:50:06;95607.00;;;14.60
33267;BMP180;19638;49.080;11.896;2023-04-24T16:54:10;95612.00;;;14.20
33267;BMP180;19638;49.080;11.896;2023-04-24T16:58:17;95612.00;;;13.80
33267;BMP180;19638;49.080;11.896;2023-04-24T17:02:23;95609.00;;;13.60
33267;BMP180;19638;49.080;11.896;2023-04-24T17:06:30;95615.00;;;13.30
33267;BMP180;19638;49.080;11.896;2023-04-24T17:10:33;95619.00;;;13.20
33267;BMP180;19638;49.080;11.896;2023-04-24T17:14:37;95618.00;;;12.90
33267;BMP180;19638;49.080;11.896;2023-04-24T17:18:40;95612.00;;;12.70
33267;BMP180;19638;49.080;11.896;2023-04-24T17:22:46;95623.00;;;12.60
33267;BMP180;19638;49.080;11.896;2023-04-24T17:26:51;95626.00;;;12.60
33267;BMP180;19638;49.080;11.896;2023-04-24T17:31:04;95620.00;;;12.60
33267;BMP180;19638;49.080;11.896;2023-04-24T17:35:12;95628.00;;;12.70
33267;BMP180;19638;49.080;11.896;2023-04-24T17:39:17;95627.00;;;12.60
33267;BMP180;19638;49.080;11.896;2023-04-24T17:43:23;95628.00;;;12.50
33267;BMP180;19638;49.080;11.896;2023-04-24T17:47:28;95637.00;;;12.40
33267;BMP180;19638;49.080;11.896;2023-04-24T17:51:33;95629.00;;;12.30
33267;BMP180;19638;49.080;11.896;2023-04-24T17:55:39;95637.00;;;12.10
33267;BMP180;19638;49.080;11.896;2023-04-24T17:59:45;95636.00;;;11.90
33267;BMP180;19638;49.080;11.896;2023-04-24T18:03:51;95639.00;;;11.80
33267;BMP180;19638;49.080;11.896;2023-04-24T18:07:56;95649.00;;;11.60
33267;BMP180;19638;49.080;11.896;2023-04-24T18:12:04;95650.00;;;11.50
33267;BMP180;19638;49.080;11.896;2023-04-24T18:16:08;95646.00;;;11.30
33267;BMP180;19638;49.080;11.896;2023-04-24T18:20:14;95656.00;;;11.10
33267;BMP180;19638;49.080;11.896;2023-04-24T18:24:18;95656.00;;;10.90
33267;BMP180;19638;49.080;11.896;2023-04-24T18:28:28;95654.00;;;10.70
33267;BMP180;19638;49.080;11.896;2023-04-24T18:32:35;95664.00;;;10.60
33267;BMP180;19638;49.080;11.896;2023-04-24T18:36:40;95680.00;;;10.50
33267;BMP180;19638;49.080;11.896;2023-04-24T18:40:46;95677.00;;;10.40
33267;BMP180;19638;49.080;11.896;2023-04-24T18:44:50;95681.00;;;10.30
33267;BMP180;19638;49.080;11.896;2023-04-24T18:48:53;95684.00;;;10.30
33267;BMP180;19638;49.080;11.896;2023-04-24T18:52:59;95689.00;;;10.30
33267;BMP180;19638;49.080;11.896;2023-04-24T18:57:02;95689.00;;;10.20
33267;BMP180;19638;49.080;11.896;2023-04-24T19:01:08;95691.00;;;10.20
33267;BMP180;19638;49.080;11.896;2023-04-24T19:05:11;95697.00;;;10.20
33267;BMP180;19638;49.080;11.896;2023-04-24T19:09:16;95696.00;;;10.20
33267;BMP180;19638;49.080;11.896;2023-04-24T19:13:21;95706.00;;;10.20
33267;BMP180;19638;49.080;11.896;2023-04-24T19:17:27;95709.00;;;10.20
33267;BMP180;19638;49.080;11.896;2023-04-24T19:21:33;95715.00;;;10.20
33267;BMP180;19638;49.080;11.896;2023-04-24T19:25:37;95729.00;;;10.20
33267;BMP180;19638;49.080;11.896;2023-04-24T19:29:40;95739.00;;;10.10
33267;BMP180;19638;49.080;11.896;2023-04-24T19:33:46;95746.00;;;9.90
33267;BMP180;19638;49.080;11.896;2023-04-24T19:37:49;95731.00;;;9.80
33267;BMP180;19638;49.080;11.896;2023-04-24T19:41:55;95735.00;;;9.70
33267;BMP180;19638;49.080;11.896;2023-04-24T19:46:03;95726.00;;;9.70
33267;BMP180;19638;49.080;11.896;2023-04-24T19:50:07;95724.00;;;9.60
33267;BMP180;19638;49.080;11.896;2023-04-24T19:54:11;95723.00;;;9.70
33267;BMP180;19638;49.080;11.896;2023-04-24T19:58:17;95719.00;;;9.80
33267;BMP180;19638;49.080;11.896;2023-04-24T20:02:20;95723.00;;;9.80
33267;BMP180;19638;49.080;11.896;2023-04-24T20:06:26;95721.00;;;9.70
33267;BMP180;19638;49.080;11.896;2023-04-24T20:10:33;95730.00;;;9.60
33267;BMP180;19638;49.080;11.896;2023-04-24T20:14:40;95717.00;;;9.40
33267;BMP180;19638;49.080;11.896;2023-04-24T20:18:43;95725.00;;;9.30
33267;BMP180;19638;49.080;11.896;2023-04-24T20:22:47;95721.00;;;9.10
33267;BMP180;19638;49.080;11.896;2023-04-24T20:26:52;95723.00;;;8.90
33267;BMP180;19638;49.080;11.896;2023-04-24T20:30:57;95728.00;;;8.70
33267;BMP180;19638;49.080;11.896;2023-04-24T20:35:03;95724.00;;;8.50
33267;BMP180;19638;49.080;11.896;2023-04-24T20:39:06;95722.00;;;8.30
33267;BMP180;19638;49.080;11.896;2023-04-24T20:43:16;95723.00;;;8.20
33267;BMP180;19638;49.080;11.896;2023-04-24T20:47:21;95717.00;;;8.00
33267;BMP180;19638;49.080;11.896;2023-04-24T20:51:27;95725.00;;;7.90
33267;BMP180;19638;49.080;11.896;2023-04-24T20:55:33;95717.00;;;7.80
33267;BMP180;19638;49.080;11.896;2023-04-24T20:59:37;95717.00;;;7.80
33267;BMP180;19638;49.080;11.896;2023-04-24T21:03:45;95722.00;;;7.70
33267;BMP180;19638;49.080;11.896;2023-04-24T21:07:58;95722.00;;;7.60
33267;BMP180;19638;49.080;11.896;2023-04-24T21:12:05;95711.00;;;7.60
33267;BMP180;19638;49.080;11.896;2023-04-24T21:16:08;95724.00;;;7.60
33267;BMP180;19638;49.080;11.896;2023-04-24T21:20:12;95719.00;;;7.70
33267;BMP180;19638;49.080;11.896;2023-04-24T21:24:16;95720.00;;;7.80
33267;BMP180;19638;49.080;11.896;2023-04-24T21:28:19;95714.00;;;7.80
33267;BMP180;19638;49.080;11.896;2023-04-24T21:32:24;95701.00;;;7.90
33267;BMP180;19638;49.080;11.896;2023-04-24T21:36:31;95714.00;;;7.90
33267;BMP180;19638;49.080;11.896;2023-04-24T21:40:35;95701.00;;;8.00
33267;BMP180;19638;49.080;11.896;2023-04-24T21:44:38;95701.00;;;8.00
33267;BMP180;19638;49.080;11.896;2023-04-24T21:48:45;95703.00;;;8.10
33267;BMP180;19638;49.080;11.896;2023-04-24T21:52:52;95697.00;;;8.10
33267;BMP180;19638;49.080;11.896;2023-04-24T21:56:57;95690.00;;;8.10
33267;BMP180;19638;49.080;11.896;2023-04-24T22:01:03;95692.00;;;8.10
33267;BMP180;19638;49.080;11.896;2023-04-24T22:05:06;95678.00;;;8.00
33267;BMP180;19638;49.080;11.896;2023-04-24T22:09:20;95678.00;;;8.10
33267;BMP180;19638;49.080;11.896;2023-04-24T22:13:23;95674.00;;;8.10
33267;BMP180;19638;49.080;11.896;2023-04-24T22:17:26;95677.00;;;8.10
33267;BMP180;19638;49.080;11.896;2023-04-24T22:21:29;95682.00;;;8.10
33267;BMP180;19638;49.080;11.896;2023-04-24T22:25:34;95680.00;;;8.10
33267;BMP180;19638;49.080;11.896;2023-04-24T22:29:37;95673.00;;;8.10
33267;BMP180;19638;49.080;11.896;2023-04-24T22:33:43;95674.00;;;8.20
33267;BMP180;19638;49.080;11.896;2023-04-24T22:37:53;95664.00;;;8.20
33267;BMP180;19638;49.080;11.896;2023-04-24T22:42:00;95665.00;;;8.20
33267;BMP180;19638;49.080;11.896;2023-04-24T22:46:03;95666.00;;;8.20
33267;BMP180;19638;49.080;11.896;2023-04-24T22:50:07;95666.00;;;8.20
33267;BMP180;19638;49.080;11.896;2023-04-24T22:54:11;95666.00;;;8.20
33267;BMP180;19638;49.080;11.896;2023-04-24T22:58:18;95659.00;;;8.20
33267;BMP180;19638;49.080;11.896;2023-04-24T23:02:26;95659.00;;;8.20
33267;BMP180;19638;49.080;11.896;2023-04-24T23:06:33;95650.00;;;8.20
33267;BMP180;19638;49.080;11.896;2023-04-24T23:10:40;95646.00;;;8.20
33267;BMP180;19638;49.080;11.896;2023-04-24T23:14:53;95643.00;;;8.10
33267;BMP180;19638;49.080;11.896;2023-04-24T23:18:56;95647.00;;;8.10